Time;durP1;ratioP1;P1;durP2;ratioP2;P2;SDS_P1;SDS_P2;PMS_P1;PMS_P2;Temp;Humidity;BMP_temperature;BMP_pressure;BME280_temperature;BME280_humidity;BME280_pressure;Samples;Min_cycle;Max_cycle;Signal;HPM_P1;HPM_P2
2022/11/09 00:00:48;;;;;;;7.25;3.20;;;15.50;73.00;;;;;;2270432;55;21295;-70
2022/11/09 00:03:14;;;;;;;4.00;2.50;;;15.60;73.10;;;;;;2458823;55;21552;-68
2022/11/09 00:05:40;;;;;;;3.90;2.78;;;15.60;73.10;;;;;;2261136;56;20956;-72
2022/11/09 00:08:07;;;;;;;5.03;2.53;;;15.50;73.10;;;;;;2261345;56;20949;-69
2022/11/09 00:10:34;;;;;;;4.85;2.90;;;15.60;73.20;;;;;;2261157;56;20956;-72
2022/11/09 00:13:00;;;;;;;5.85;3.03;;;15.60;73.20;;;;;;2261365;56;21009;-69
2022/11/09 00:15:26;;;;;;;4.78;2.60;;;15.60;73.20;;;;;;2296381;55;21398;-72
2022/11/09 00:17:53;;;;;;;4.93;2.70;;;15.60;73.20;;;;;;2261994;56;21322;-72
2022/11/09 00:20:19;;;;;;;4.32;2.30;;;15.60;73.30;;;;;;2261869;56;21414;-71
2022/11/09 00:22:49;;;;;;;4.65;2.67;;;15.60;73.30;;;;;;2260996;56;21498;-69
2022/11/09 00:25:16;;;;;;;4.30;2.45;;;15.70;73.20;;;;;;2299558;55;21367;-69
2022/11/09 00:27:42;;;;;;;4.10;2.30;;;15.70;73.40;;;;;;2371270;55;20965;-69
2022/11/09 00:30:10;;;;;;;4.32;2.15;;;15.70;73.40;;;;;;2325745;55;21072;-72
2022/11/09 00:32:36;;;;;;;4.93;2.10;;;15.70;73.50;;;;;;2261485;56;21017;-68
2022/11/09 00:35:03;;;;;;;4.00;1.90;;;15.70;73.50;;;;;;2261720;56;21040;-70
2022/11/09 00:37:30;;;;;;;4.62;2.65;;;15.70;73.50;;;;;;2261227;56;20958;-68
2022/11/09 00:39:57;;;;;;;4.40;2.20;;;15.70;73.50;;;;;;2261231;56;20945;-69
2022/11/09 00:42:23;;;;;;;2.97;1.77;;;15.70;73.50;;;;;;2261454;56;20941;-73
2022/11/09 00:44:49;;;;;;;4.45;2.20;;;15.80;73.50;;;;;;2308389;55;21545;-69
2022/11/09 00:47:15;;;;;;;3.53;1.92;;;15.80;73.50;;;;;;2261992;56;21048;-69
2022/11/09 00:49:42;;;;;;;6.12;2.80;;;15.80;73.40;;;;;;2261363;56;21157;-72
2022/11/09 00:52:08;;;;;;;4.18;2.08;;;15.80;73.40;;;;;;2261362;56;21316;-72
2022/11/09 00:54:35;;;;;;;5.47;2.33;;;15.80;73.40;;;;;;2426426;55;21565;-69
2022/11/09 00:57:01;;;;;;;4.80;2.62;;;15.80;73.50;;;;;;2261367;56;21466;-70
2022/11/09 00:59:27;;;;;;;4.87;2.65;;;15.80;73.50;;;;;;2260933;56;20961;-72
2022/11/09 01:01:54;;;;;;;4.97;2.60;;;15.80;73.50;;;;;;2261489;56;21016;-71
2022/11/09 01:04:20;;;;;;;4.97;2.40;;;15.80;73.50;;;;;;2261832;56;21426;-73
2022/11/09 01:06:47;;;;;;;4.30;2.62;;;15.90;74.10;;;;;;2261207;56;20967;-69
2022/11/09 01:09:13;;;;;;;5.15;2.75;;;15.90;73.40;;;;;;2403797;55;20949;-71
2022/11/09 01:11:39;;;;;;;4.47;2.60;;;15.90;73.40;;;;;;2261122;56;21894;-72
2022/11/09 01:14:06;;;;;;;4.30;2.28;;;15.90;73.50;;;;;;2261434;56;21490;-71
2022/11/09 01:16:32;;;;;;;4.78;2.30;;;15.90;73.60;;;;;;2261494;56;21500;-68
2022/11/09 01:18:59;;;;;;;5.22;2.70;;;15.90;73.60;;;;;;2294518;55;21404;-71
2022/11/09 01:21:25;;;;;;;5.15;2.58;;;15.90;73.60;;;;;;2347264;55;21431;-68
2022/11/09 01:23:52;;;;;;;4.05;2.15;;;16.00;73.70;;;;;;2261776;56;21356;-68
2022/11/09 01:26:18;;;;;;;4.43;2.53;;;16.00;73.80;;;;;;2261171;56;21533;-73
2022/11/09 01:28:45;;;;;;;4.65;2.45;;;16.00;73.80;;;;;;2276514;55;21662;-71
2022/11/09 01:31:13;;;;;;;4.10;2.15;;;16.00;73.80;;;;;;2261736;56;20956;-72
2022/11/09 01:33:40;;;;;;;3.92;2.03;;;16.10;73.80;;;;;;2261192;56;21900;-70
2022/11/09 01:36:08;;;;;;;4.37;2.08;;;16.10;73.90;;;;;;2261220;56;21012;-72
2022/11/09 01:38:36;;;;;;;4.00;2.30;;;16.10;73.90;;;;;;2258880;56;20980;-70
2022/11/09 01:41:04;;;;;;;3.53;1.70;;;16.10;73.90;;;;;;2390215;55;20957;-71
2022/11/09 01:43:30;;;;;;;4.15;1.80;;;16.10;74.00;;;;;;2260630;56;21281;-72
2022/11/09 01:47:27;;;;;;;3.70;1.80;;;16.10;74.00;;;;;;2261381;56;20957;-70
2022/11/09 01:49:55;;;;;;;3.00;1.45;;;16.20;73.00;;;;;;2395820;55;21589;-70
2022/11/09 01:52:24;;;;;;;5.22;1.85;;;16.20;74.20;;;;;;2261337;56;20976;-72
2022/11/09 01:54:52;;;;;;;5.82;2.10;;;16.20;74.10;;;;;;2261308;56;21132;-73
2022/11/09 01:57:25;;;;;;;3.42;1.67;;;16.20;74.20;;;;;;2261707;56;20948;-71
2022/11/09 01:59:54;;;;;;;4.32;1.48;;;16.20;74.20;;;;;;2272429;55;21377;-74
2022/11/09 02:02:20;;;;;;;3.67;1.40;;;16.30;74.40;;;;;;2261781;56;20937;-72
2022/11/09 02:04:50;;;;;;;4.62;1.60;;;16.30;74.50;;;;;;2348622;55;20952;-73
2022/11/09 02:07:17;;;;;;;4.53;1.65;;;16.30;74.50;;;;;;2261993;55;20940;-73
2022/11/09 02:09:48;;;;;;;2.50;1.40;;;16.30;74.60;;;;;;2318713;55;21100;-71
2022/11/09 02:12:14;;;;;;;3.58;1.60;;;16.40;74.70;;;;;;2261579;56;20992;-73
2022/11/09 02:14:41;;;;;;;4.90;1.70;;;16.40;74.80;;;;;;2489972;55;21337;-74
2022/11/09 02:17:07;;;;;;;5.03;1.70;;;16.40;74.80;;;;;;2261482;56;21424;-72
2022/11/09 02:19:34;;;;;;;3.22;1.62;;;16.50;74.90;;;;;;2261164;56;20996;-73
2022/11/09 02:22:00;;;;;;;3.55;1.70;;;16.50;74.90;;;;;;2261228;56;20993;-74
2022/11/09 02:24:26;;;;;;;3.70;1.55;;;16.50;74.90;;;;;;2261202;56;21123;-71
2022/11/09 02:26:53;;;;;;;3.47;1.27;;;16.50;74.90;;;;;;2381974;55;20976;-72
2022/11/09 02:29:42;;;;;;;3.75;1.33;;;16.50;75.60;;;;;;2261248;56;21040;-73
2022/11/09 02:32:23;;;;;;;3.37;1.40;;;16.60;74.90;;;;;;2261565;56;21738;-72
2022/11/09 02:34:49;;;;;;;2.87;1.40;;;16.60;74.50;;;;;;2489857;55;21429;-71
2022/11/09 02:37:38;;;;;;;2.95;1.42;;;16.60;74.90;;;;;;2490248;55;20960;-71
2022/11/09 02:40:13;;;;;;;3.25;1.52;;;16.60;74.30;;;;;;2261233;56;20944;-74
2022/11/09 02:42:39;;;;;;;3.05;1.30;;;16.60;74.70;;;;;;2325678;55;21522;-73
2022/11/09 02:45:06;;;;;;;3.12;1.37;;;16.60;74.90;;;;;;2261451;56;21359;-73
2022/11/09 02:47:33;;;;;;;3.03;1.12;;;16.70;75.10;;;;;;2261311;56;20954;-72
2022/11/09 02:49:59;;;;;;;3.12;1.45;;;16.70;75.20;;;;;;2261034;56;21032;-71
2022/11/09 02:52:26;;;;;;;4.45;1.20;;;16.70;75.20;;;;;;2261101;56;21012;-73
2022/11/09 02:54:52;;;;;;;3.58;1.30;;;16.70;75.30;;;;;;2261138;56;21084;-74
2022/11/09 02:57:19;;;;;;;3.60;1.48;;;16.70;75.20;;;;;;2261640;56;21441;-72
2022/11/09 02:59:45;;;;;;;2.62;1.35;;;16.70;75.20;;;;;;2490523;55;21052;-71
2022/11/09 03:02:12;;;;;;;3.42;1.45;;;16.70;75.10;;;;;;2261767;56;21485;-72
2022/11/09 03:04:39;;;;;;;4.70;1.77;;;16.70;75.10;;;;;;2261304;56;20957;-71
2022/11/09 03:07:06;;;;;;;2.87;1.30;;;16.70;75.00;;;;;;2264216;55;21476;-73
2022/11/09 03:09:33;;;;;;;2.80;1.25;;;16.80;75.10;;;;;;2261058;56;20952;-74
2022/11/09 03:12:27;;;;;;;2.50;1.20;;;16.80;75.90;;;;;;2261663;56;21250;-73
2022/11/09 03:14:54;;;;;;;2.70;1.40;;;16.80;75.20;;;;;;2363865;55;21075;-72
2022/11/09 03:17:21;;;;;;;3.62;1.30;;;16.80;75.20;;;;;;2261527;56;21533;-71
2022/11/09 03:19:47;;;;;;;2.53;1.27;;;16.80;75.30;;;;;;2489908;55;20936;-71
2022/11/09 03:22:14;;;;;;;2.83;1.33;;;16.80;75.20;;;;;;2414253;55;20989;-72
2022/11/09 03:24:40;;;;;;;2.60;1.10;;;16.80;75.20;;;;;;2261137;56;20968;-73
2022/11/09 03:27:07;;;;;;;4.28;1.40;;;16.80;75.20;;;;;;2296161;55;21273;-73
2022/11/09 03:29:33;;;;;;;3.08;1.23;;;16.80;75.20;;;;;;2261663;56;21394;-72
2022/11/09 03:32:00;;;;;;;3.50;1.40;;;16.80;75.10;;;;;;2261216;56;21317;-72
2022/11/09 03:34:26;;;;;;;2.33;1.20;;;16.80;75.20;;;;;;2261478;56;20960;-72
2022/11/09 03:36:53;;;;;;;2.70;1.10;;;16.80;75.20;;;;;;2261528;56;21545;-73
2022/11/09 03:39:19;;;;;;;2.95;1.10;;;16.80;75.20;;;;;;2261056;56;20960;-73
2022/11/09 03:41:46;;;;;;;2.95;1.08;;;16.80;75.20;;;;;;2260996;56;21528;-76
2022/11/09 03:44:13;;;;;;;2.60;1.00;;;16.80;75.20;;;;;;2261483;56;21484;-75
2022/11/09 03:46:39;;;;;;;3.17;1.20;;;16.80;75.20;;;;;;2261030;56;21001;-75
2022/11/09 03:49:06;;;;;;;3.35;1.02;;;16.80;75.30;;;;;;2261960;56;21012;-74
2022/11/09 03:51:32;;;;;;;3.33;1.20;;;16.80;75.30;;;;;;2338867;55;21329;-73
2022/11/09 03:53:59;;;;;;;4.35;1.10;;;16.90;75.50;;;;;;2261633;56;21376;-75
2022/11/09 03:56:25;;;;;;;3.28;1.12;;;16.80;75.50;;;;;;2397442;55;21016;-74
2022/11/09 03:58:52;;;;;;;3.97;1.15;;;16.90;75.70;;;;;;2261915;56;21110;-74
2022/11/09 04:01:18;;;;;;;3.87;1.00;;;16.90;75.70;;;;;;2261484;56;21057;-74
2022/11/09 04:03:45;;;;;;;2.67;0.90;;;16.90;75.70;;;;;;2261403;56;21418;-75
2022/11/09 04:06:11;;;;;;;2.30;1.05;;;16.90;75.70;;;;;;2325017;55;20937;-74
2022/11/09 04:08:38;;;;;;;2.40;1.00;;;16.90;75.80;;;;;;2271140;55;21389;-74
2022/11/09 04:11:04;;;;;;;2.20;1.00;;;16.90;75.80;;;;;;2490567;55;21873;-74
2022/11/09 04:13:30;;;;;;;2.28;1.10;;;16.90;75.90;;;;;;2261688;56;21007;-75
2022/11/09 04:15:57;;;;;;;3.58;1.00;;;16.90;75.90;;;;;;2272030;55;20913;-75
2022/11/09 04:18:24;;;;;;;2.25;1.10;;;16.90;75.90;;;;;;2261782;56;21063;-74
2022/11/09 04:20:50;;;;;;;2.20;0.95;;;17.00;76.00;;;;;;2286603;55;21349;-75
2022/11/09 04:23:17;;;;;;;2.37;1.10;;;17.00;76.10;;;;;;2411828;55;21001;-75
2022/11/09 04:25:43;;;;;;;3.35;1.00;;;17.00;76.10;;;;;;2261025;56;21300;-75
2022/11/09 04:28:11;;;;;;;3.12;0.90;;;17.00;76.10;;;;;;2261532;56;21068;-73
2022/11/09 04:30:37;;;;;;;2.37;1.10;;;17.00;76.10;;;;;;2489877;55;20953;-74
2022/11/09 04:33:04;;;;;;;2.70;1.10;;;17.00;76.10;;;;;;2336685;55;20940;-72
2022/11/09 04:35:31;;;;;;;2.12;1.00;;;17.00;76.00;;;;;;2294676;55;21012;-73
2022/11/09 04:37:59;;;;;;;2.37;0.90;;;17.00;76.00;;;;;;2261565;56;21048;-74
2022/11/09 04:40:26;;;;;;;2.28;1.05;;;17.10;76.10;;;;;;2348921;55;21453;-74
2022/11/09 04:42:53;;;;;;;3.17;1.20;;;17.10;76.10;;;;;;2261485;56;21505;-74
2022/11/09 04:45:20;;;;;;;5.57;1.08;;;17.10;76.20;;;;;;2490329;55;21038;-73
2022/11/09 04:47:47;;;;;;;3.62;1.10;;;17.10;76.80;;;;;;2260895;56;20961;-74
2022/11/09 04:50:14;;;;;;;2.20;1.17;;;17.10;76.10;;;;;;2335539;55;21123;-73
2022/11/09 04:52:41;;;;;;;2.53;0.98;;;17.10;76.10;;;;;;2489420;55;20957;-75
2022/11/09 04:55:08;;;;;;;2.60;0.98;;;17.10;76.10;;;;;;2330933;55;21084;-75
2022/11/09 04:57:34;;;;;;;3.00;0.98;;;17.10;76.10;;;;;;2261226;56;20954;-73
2022/11/09 05:00:00;;;;;;;1.92;0.90;;;17.10;76.20;;;;;;2280876;55;21399;-74
2022/11/09 05:02:27;;;;;;;2.65;1.10;;;17.20;76.30;;;;;;2260593;56;21024;-74
2022/11/09 05:04:53;;;;;;;2.28;0.95;;;17.20;76.30;;;;;;2490304;55;21013;-74
2022/11/09 05:07:20;;;;;;;1.95;0.73;;;17.20;76.30;;;;;;2261239;56;20952;-75
2022/11/09 05:09:46;;;;;;;1.73;0.80;;;17.20;76.30;;;;;;2269285;55;20996;-75
2022/11/09 05:12:12;;;;;;;2.28;1.05;;;17.20;76.30;;;;;;2261752;56;21532;-75
2022/11/09 05:14:39;;;;;;;2.00;0.93;;;17.20;76.40;;;;;;2399603;55;21012;-74
2022/11/09 05:17:07;;;;;;;1.90;0.90;;;17.20;76.40;;;;;;2287165;55;20973;-74
2022/11/09 05:19:34;;;;;;;2.20;0.93;;;17.30;76.50;;;;;;2430008;55;21305;-73
2022/11/09 05:23:57;;;;;;;1.40;0.62;;;17.30;76.40;;;;;;2261277;56;21331;-73
2022/11/09 05:26:31;;;;;;;2.50;0.90;;;17.30;76.40;;;;;;2353132;55;21096;-73
2022/11/09 05:28:59;;;;;;;2.03;0.90;;;17.30;76.00;;;;;;2373519;55;21028;-75
2022/11/09 05:31:25;;;;;;;2.22;0.90;;;17.40;76.30;;;;;;2296637;55;20968;-73
2022/11/09 05:33:52;;;;;;;2.85;0.98;;;17.30;76.30;;;;;;2261487;56;20957;-74
2022/11/09 05:36:19;;;;;;;2.20;1.00;;;17.40;76.40;;;;;;2361052;55;20940;-75
2022/11/09 05:38:46;;;;;;;1.85;0.80;;;17.40;76.40;;;;;;2308154;55;21534;-73
2022/11/09 05:41:12;;;;;;;3.22;1.42;;;17.40;76.30;;;;;;2332261;55;20952;-75
2022/11/09 05:43:39;;;;;;;2.62;1.10;;;17.40;76.40;;;;;;2261192;56;21017;-75
2022/11/09 05:46:05;;;;;;;2.42;0.90;;;17.40;76.40;;;;;;2261317;56;21523;-73
2022/11/09 05:48:32;;;;;;;2.37;0.90;;;17.40;76.40;;;;;;2313618;55;20994;-73
2022/11/09 05:51:02;;;;;;;2.45;1.27;;;17.40;76.30;;;;;;2271403;55;21260;-76
2022/11/09 05:53:29;;;;;;;3.42;1.30;;;17.40;76.20;;;;;;2260659;56;21683;-74
2022/11/09 05:55:59;;;;;;;3.03;1.60;;;17.50;76.40;;;;;;2260963;56;21044;-73
2022/11/09 05:58:26;;;;;;;4.53;1.58;;;17.50;76.40;;;;;;2261302;56;20972;-76
2022/11/09 06:00:52;;;;;;;3.80;1.70;;;17.50;75.80;;;;;;2489875;55;20949;-76
2022/11/09 06:03:19;;;;;;;2.62;1.30;;;17.50;75.70;;;;;;2261429;56;21393;-74
2022/11/09 06:05:46;;;;;;;2.30;1.20;;;17.50;75.60;;;;;;2266870;55;20941;-76
2022/11/09 06:08:14;;;;;;;2.83;1.30;;;17.40;75.40;;;;;;2261268;56;21003;-76
2022/11/09 06:10:41;;;;;;;3.28;1.60;;;17.40;75.20;;;;;;2279013;55;21029;-75
2022/11/09 06:13:08;;;;;;;3.17;1.62;;;17.40;75.30;;;;;;2424283;55;20953;-75
2022/11/09 06:15:34;;;;;;;3.85;2.17;;;17.40;75.40;;;;;;2290128;55;21160;-74
2022/11/09 06:18:01;;;;;;;3.30;1.77;;;17.40;75.50;;;;;;2260974;56;21394;-75
2022/11/09 06:20:27;;;;;;;4.28;2.00;;;17.40;75.60;;;;;;2424610;55;21037;-75
2022/11/09 06:22:58;;;;;;;3.20;1.80;;;17.30;75.60;;;;;;2402063;55;20968;-75
2022/11/09 06:25:27;;;;;;;3.53;1.87;;;17.30;75.60;;;;;;2395594;55;20937;-75
2022/11/09 06:27:54;;;;;;;3.40;1.48;;;17.30;75.70;;;;;;2354636;55;21045;-74
2022/11/09 06:30:21;;;;;;;3.37;1.60;;;17.30;75.70;;;;;;2271701;55;21446;-76
2022/11/09 06:32:48;;;;;;;3.22;1.75;;;17.30;75.60;;;;;;2261195;56;25943;-76
2022/11/09 06:35:14;;;;;;;3.87;1.80;;;17.30;75.50;;;;;;2416828;55;21063;-76
2022/11/09 06:37:41;;;;;;;4.25;2.10;;;17.30;75.40;;;;;;2261306;56;20925;-76
2022/11/09 06:40:08;;;;;;;3.53;2.00;;;17.30;75.30;;;;;;2261628;56;21477;-76
2022/11/09 06:42:35;;;;;;;8.10;2.45;;;17.30;75.30;;;;;;2261691;56;20976;-76
2022/11/09 06:45:01;;;;;;;3.87;1.80;;;17.30;75.30;;;;;;2261253;56;20925;-76
2022/11/09 06:47:28;;;;;;;3.12;1.40;;;17.30;75.40;;;;;;2347990;55;20949;-74
2022/11/09 06:49:55;;;;;;;3.92;1.42;;;17.20;75.40;;;;;;2352982;55;20968;-75
2022/11/09 06:52:21;;;;;;;3.60;1.90;;;17.20;75.50;;;;;;2261428;56;20941;-75
2022/11/09 06:54:48;;;;;;;3.20;1.80;;;17.20;75.50;;;;;;2376316;55;21619;-75
2022/11/09 06:57:14;;;;;;;4.60;1.77;;;17.20;75.60;;;;;;2359748;55;20972;-75
2022/11/09 06:59:41;;;;;;;4.07;1.85;;;17.20;75.60;;;;;;2261055;56;20988;-76
2022/11/09 07:02:09;;;;;;;2.95;1.15;;;17.20;75.60;;;;;;2490396;55;21004;-75
2022/11/09 07:04:35;;;;;;;2.28;1.02;;;17.20;75.60;;;;;;2439052;55;21806;-75
2022/11/09 07:07:02;;;;;;;2.33;0.88;;;17.20;75.60;;;;;;2261230;56;21434;-74
2022/11/09 07:09:28;;;;;;;2.42;1.00;;;17.10;75.50;;;;;;2267019;55;20937;-75
2022/11/09 07:11:55;;;;;;;3.85;1.30;;;17.10;75.50;;;;;;2263160;55;20962;-75
2022/11/09 07:14:21;;;;;;;2.50;1.20;;;17.10;75.60;;;;;;2490317;55;20964;-74
2022/11/09 07:16:48;;;;;;;2.72;1.10;;;17.10;75.60;;;;;;2261244;56;21020;-74
2022/11/09 07:19:14;;;;;;;2.17;1.05;;;17.10;75.60;;;;;;2322823;55;20964;-74
2022/11/09 07:21:41;;;;;;;3.70;0.85;;;17.10;75.60;;;;;;2489913;55;20968;-73
2022/11/09 07:24:07;;;;;;;2.40;0.80;;;17.10;75.60;;;;;;2395763;55;22451;-76
2022/11/09 07:26:34;;;;;;;2.40;0.85;;;17.10;75.70;;;;;;2261100;56;21017;-75
2022/11/09 07:29:00;;;;;;;1.95;0.80;;;17.10;75.80;;;;;;2471499;55;21667;-75
2022/11/09 07:31:28;;;;;;;1.77;0.85;;;17.10;75.70;;;;;;2428946;55;21008;-74
2022/11/09 07:33:57;;;;;;;1.77;0.95;;;17.00;75.70;;;;;;2290293;55;21050;-74
2022/11/09 07:36:23;;;;;;;1.60;0.70;;;17.00;75.70;;;;;;2261343;56;21020;-74
2022/11/09 07:38:50;;;;;;;1.87;0.70;;;16.90;75.60;;;;;;2436592;55;20945;-73
2022/11/09 07:41:16;;;;;;;2.05;0.80;;;17.00;75.80;;;;;;2261408;56;21553;-74
2022/11/09 07:43:42;;;;;;;2.03;0.88;;;17.00;75.90;;;;;;2261052;56;21372;-74
2022/11/09 07:46:09;;;;;;;2.97;0.75;;;17.00;75.90;;;;;;2261391;56;21012;-73
2022/11/09 07:48:35;;;;;;;1.60;0.70;;;17.00;76.00;;;;;;2261365;56;20953;-75
2022/11/09 07:51:01;;;;;;;2.00;0.70;;;17.00;76.00;;;;;;2260939;56;20952;-76
2022/11/09 07:53:28;;;;;;;1.98;0.70;;;17.00;76.10;;;;;;2265758;55;21528;-76
2022/11/09 07:55:58;;;;;;;1.95;0.90;;;17.00;76.10;;;;;;2261521;56;20972;-75
2022/11/09 07:58:25;;;;;;;1.73;0.70;;;17.00;76.00;;;;;;2432992;55;21453;-75
2022/11/09 08:00:51;;;;;;;2.90;0.88;;;17.00;76.10;;;;;;2296930;55;21393;-74
2022/11/09 08:03:18;;;;;;;1.98;0.70;;;17.00;76.10;;;;;;2358229;55;21603;-76
2022/11/09 08:05:45;;;;;;;1.92;0.80;;;17.00;76.10;;;;;;2260928;56;21711;-74
2022/11/09 08:08:11;;;;;;;2.12;0.77;;;17.00;76.20;;;;;;2375222;55;21008;-73
2022/11/09 08:10:38;;;;;;;1.77;0.80;;;17.00;76.20;;;;;;2260927;56;21481;-74
2022/11/09 08:13:08;;;;;;;1.75;0.70;;;17.00;76.30;;;;;;2273620;55;20956;-77
2022/11/09 08:15:34;;;;;;;2.95;0.80;;;17.00;76.30;;;;;;2261412;56;21027;-74
2022/11/09 08:18:03;;;;;;;2.03;0.80;;;17.00;76.40;;;;;;2490223;55;21032;-74
2022/11/09 08:20:29;;;;;;;2.45;0.73;;;17.00;76.40;;;;;;2260984;56;21461;-73
2022/11/09 08:22:55;;;;;;;2.25;0.80;;;17.00;76.40;;;;;;2261054;56;21513;-73
2022/11/09 08:25:24;;;;;;;3.00;0.80;;;17.00;76.40;;;;;;2261121;56;20953;-74
2022/11/09 08:27:50;;;;;;;2.37;0.90;;;16.90;76.40;;;;;;2399152;55;20997;-74
2022/11/09 08:30:20;;;;;;;1.62;0.70;;;17.10;76.60;;;;;;2261708;56;20957;-74
2022/11/09 08:32:47;;;;;;;1.80;0.88;;;17.10;76.60;;;;;;2261254;56;20976;-74
2022/11/09 08:35:17;;;;;;;2.92;0.70;;;17.10;76.70;;;;;;2261385;56;21659;-74
2022/11/09 08:37:45;;;;;;;2.17;0.90;;;17.10;76.70;;;;;;2277711;55;21020;-75
2022/11/09 08:40:12;;;;;;;2.42;0.80;;;17.10;77.50;;;;;;2261178;56;21284;-74
2022/11/09 08:42:38;;;;;;;1.80;0.68;;;17.10;76.80;;;;;;2414848;55;21076;-74
2022/11/09 08:45:06;;;;;;;0.98;0.60;;;17.10;76.90;;;;;;2292355;55;21775;-77
2022/11/09 08:47:33;;;;;;;1.42;0.70;;;17.20;77.00;;;;;;2264409;55;20997;-73
2022/11/09 08:50:00;;;;;;;1.92;0.75;;;17.20;77.10;;;;;;2340802;55;20933;-76
2022/11/09 08:52:27;;;;;;;1.95;0.70;;;17.20;77.20;;;;;;2307838;55;21021;-74
2022/11/09 08:54:53;;;;;;;1.27;0.50;;;17.20;77.20;;;;;;2260999;56;21052;-75
2022/11/09 08:57:20;;;;;;;1.52;0.70;;;17.20;77.20;;;;;;2490320;55;20977;-78
2022/11/09 08:59:46;;;;;;;2.55;0.80;;;17.30;77.30;;;;;;2261267;56;20967;-73
2022/11/09 09:02:12;;;;;;;2.08;0.77;;;17.30;77.30;;;;;;2462260;55;20961;-75
2022/11/09 09:04:39;;;;;;;2.28;0.82;;;17.30;77.30;;;;;;2261450;56;20956;-74
2022/11/09 09:07:05;;;;;;;1.20;0.68;;;17.40;77.30;;;;;;2339511;55;20960;-73
2022/11/09 09:09:31;;;;;;;2.20;0.80;;;17.40;77.30;;;;;;2261008;56;21533;-73
2022/11/09 09:11:58;;;;;;;1.45;0.57;;;17.40;77.30;;;;;;2261329;56;21004;-74
2022/11/09 09:14:24;;;;;;;2.00;0.73;;;17.40;77.30;;;;;;2301634;55;20961;-74
2022/11/09 09:16:51;;;;;;;1.33;0.50;;;17.50;77.40;;;;;;2261100;56;21936;-74
2022/11/09 09:19:17;;;;;;;3.70;0.80;;;17.50;77.40;;;;;;2261514;56;20992;-76
2022/11/09 09:21:43;;;;;;;2.10;0.90;;;17.50;77.30;;;;;;2261203;56;20952;-78
2022/11/09 09:24:10;;;;;;;1.85;0.80;;;17.50;77.30;;;;;;2261211;55;20980;-76
2022/11/09 09:26:36;;;;;;;1.23;0.50;;;17.60;77.40;;;;;;2331004;55;21433;-73
2022/11/09 09:29:02;;;;;;;1.83;0.70;;;17.60;77.30;;;;;;2268696;55;21509;-74
2022/11/09 09:31:28;;;;;;;1.95;0.70;;;17.60;77.30;;;;;;2261141;56;20948;-74
2022/11/09 09:33:55;;;;;;;1.77;0.70;;;17.60;77.30;;;;;;2486115;55;20929;-73
2022/11/09 09:36:22;;;;;;;1.67;0.70;;;17.60;77.20;;;;;;2261769;56;21008;-76
2022/11/09 09:38:55;;;;;;;1.33;0.60;;;17.70;77.30;;;;;;2260632;56;21536;-74
2022/11/09 09:41:26;;;;;;;;;;;17.70;77.00;;;;;;2271444;55;21059;-74
2022/11/09 09:43:55;;;;;;;1.50;0.65;;;17.80;76.40;;;;;;2261624;56;20069;-75
2022/11/09 09:46:41;;;;;;;1.62;0.60;;;17.70;77.10;;;;;;2261482;56;21386;-74
2022/11/09 09:50:36;;;;;;;1.85;0.80;;;17.70;76.90;;;;;;2261640;56;20947;-74
2022/11/09 09:53:22;;;;;;;1.50;0.60;;;17.80;77.10;;;;;;2328498;55;21069;-75
2022/11/09 09:55:56;;;;;;;1.08;0.45;;;17.80;76.70;;;;;;2261582;56;20953;-74
2022/11/09 09:58:23;;;;;;;;;;;17.80;77.20;;;;;;2264938;56;20972;-74
2022/11/09 10:00:52;;;;;;;1.83;0.50;;;17.80;76.40;;;;;;2261099;56;20130;-74
2022/11/09 10:03:19;;;;;;;1.12;0.50;;;17.90;77.30;;;;;;2318964;55;21096;-74
2022/11/09 10:09:34;;;;;;;2.45;0.80;;;17.90;77.30;;;;;;2338277;55;21405;-73
2022/11/09 10:12:36;;;;;;;1.27;0.50;;;17.90;76.80;;;;;;2261177;56;20957;-76
2022/11/09 10:15:17;;;;;;;1.62;0.68;;;18.00;76.90;;;;;;2260947;56;20971;-74
2022/11/09 10:18:08;;;;;;;1.67;0.60;;;18.00;77.20;;;;;;2342492;55;21469;-78
2022/11/09 10:20:57;;;;;;;1.12;0.50;;;18.00;76.80;;;;;;2261678;56;20921;-76
2022/11/09 10:23:46;;;;;;;2.25;0.70;;;18.00;77.00;;;;;;2433913;55;21021;-77
2022/11/09 10:26:26;;;;;;;2.95;0.70;;;18.00;77.20;;;;;;2261771;56;21028;-75
2022/11/09 10:29:01;;;;;;;2.15;0.60;;;18.00;77.20;;;;;;2281197;55;20956;-74
2022/11/09 10:31:40;;;;;;;1.67;0.60;;;18.10;77.20;;;;;;2262766;56;20968;-78
2022/11/09 10:34:16;;;;;;;2.28;0.60;;;18.10;77.50;;;;;;2460998;55;21628;-74
2022/11/09 10:37:03;;;;;;;2.33;0.70;;;18.10;77.90;;;;;;2261240;56;20996;-75
2022/11/09 10:39:41;;;;;;;1.83;0.52;;;18.10;76.90;;;;;;2489936;55;20963;-73
2022/11/09 10:42:10;;;;;;;2.20;0.70;;;18.10;77.00;;;;;;2490591;55;20977;-75
2022/11/09 10:44:36;;;;;;;1.33;0.65;;;18.20;77.10;;;;;;2315050;55;20961;-74
2022/11/09 10:47:11;;;;;;;1.42;0.60;;;18.20;77.20;;;;;;2265303;55;20957;-75
2022/11/09 10:49:38;;;;;;;1.62;0.50;;;18.20;77.00;;;;;;2337618;55;21511;-74
2022/11/09 10:52:05;;;;;;;1.25;0.60;;;18.20;77.10;;;;;;2261503;56;20932;-75
2022/11/09 10:54:34;;;;;;;2.65;0.82;;;18.20;77.10;;;;;;2489771;55;20997;-77
2022/11/09 10:57:12;;;;;;;1.70;0.80;;;18.20;77.00;;;;;;2329542;55;21405;-75
2022/11/09 10:59:59;;;;;;;1.55;0.60;;;18.30;77.10;;;;;;2303812;55;21029;-75
2022/11/09 11:02:47;;;;;;;1.15;0.50;;;18.30;76.40;;;;;;2261636;56;21549;-75
2022/11/09 11:05:25;;;;;;;1.87;0.60;;;18.30;76.20;;;;;;2282209;55;20988;-74
2022/11/09 11:07:51;;;;;;;1.52;0.70;;;18.30;76.60;;;;;;2261511;55;20961;-75
2022/11/09 11:10:19;;;;;;;1.12;0.40;;;18.30;76.90;;;;;;2261465;56;20988;-75
2022/11/09 11:13:16;;;;;;;1.85;0.73;;;18.30;76.80;;;;;;2260945;56;20972;-74
2022/11/09 11:15:43;;;;;;;1.23;0.60;;;18.30;76.70;;;;;;2260913;56;20940;-75
2022/11/09 11:18:31;;;;;;;1.87;0.70;;;18.30;76.80;;;;;;2376734;55;21025;-75
2022/11/09 11:21:15;;;;;;;1.85;0.65;;;18.30;76.60;;;;;;2339107;55;20980;-75
2022/11/09 11:23:44;;;;;;;1.48;0.60;;;18.40;76.30;;;;;;2260987;56;20997;-75
2022/11/09 11:27:01;;;;;;;1.52;0.52;;;18.30;76.80;;;;;;2294827;55;20968;-75
2022/11/09 11:29:38;;;;;;;2.47;0.50;;;18.40;75.90;;;;;;2490533;55;20964;-75
2022/11/09 11:32:13;;;;;;;1.17;0.52;;;18.40;76.60;;;;;;2394407;55;21032;-74
2022/11/09 11:34:39;;;;;;;1.17;0.57;;;18.40;76.70;;;;;;2261136;56;21525;-75
2022/11/09 11:38:50;;;;;;;0.95;0.50;;;18.40;76.90;;;;;;2261567;56;21092;-75
2022/11/09 11:47:00;;;;;;;1.12;0.70;;;18.40;75.70;;;;;;2315102;55;21021;-75
2022/11/09 11:52:58;;;;;;;1.35;0.40;;;18.50;75.80;;;;;;2359553;55;21005;-76
2022/11/09 11:56:47;;;;;;;0.70;0.30;;;18.50;75.90;;;;;;2301520;55;20993;-75
2022/11/09 12:00:58;;;;;;;0.70;0.40;;;18.50;76.30;;;;;;2466612;55;21044;-73
2022/11/09 12:04:13;;;;;;;1.25;0.50;;;18.50;75.60;;;;;;2261191;56;21048;-75
2022/11/09 12:07:45;;;;;;;2.05;0.40;;;18.40;75.90;;;;;;2279246;55;21414;-74
2022/11/09 12:12:33;;;;;;;0.82;0.37;;;18.40;75.60;;;;;;2260923;56;20945;-75
2022/11/09 12:18:24;;;;;;;1.98;0.40;;;18.40;75.60;;;;;;2342211;55;20953;-74
2022/11/09 12:21:15;;;;;;;0.77;0.40;;;18.40;75.60;;;;;;2260578;56;21803;-73
2022/11/09 12:23:54;;;;;;;0.90;0.40;;;18.50;76.10;;;;;;2368827;55;21304;-76
2022/11/09 12:29:57;;;;;;;0.80;0.40;;;18.40;76.50;;;;;;2475026;55;21585;-75
2022/11/09 12:35:29;;;;;;;1.20;0.50;;;18.50;76.60;;;;;;2335561;55;20972;-76
2022/11/09 12:38:07;;;;;;;1.40;0.55;;;18.50;75.70;;;;;;2391515;55;21655;-74
2022/11/09 12:40:39;;;;;;;0.68;0.30;;;18.50;76.50;;;;;;2311972;55;21331;-74
2022/11/09 12:44:45;;;;;;;0.93;0.40;;;18.50;76.50;;;;;;2489878;55;21485;-74
2022/11/09 12:47:21;;;;;;;1.77;0.57;;;18.50;76.40;;;;;;2386134;55;21537;-76
2022/11/09 12:49:47;;;;;;;0.93;0.40;;;18.50;76.40;;;;;;2387821;55;21005;-76
2022/11/09 12:52:15;;;;;;;1.12;0.50;;;18.50;76.70;;;;;;2302065;55;21052;-73
2022/11/09 12:54:43;;;;;;;1.42;0.60;;;18.40;76.50;;;;;;2260518;56;21076;-74
2022/11/09 12:57:13;;;;;;;1.65;0.57;;;18.40;76.60;;;;;;2293230;55;21437;-75
2022/11/09 12:59:48;;;;;;;1.25;0.40;;;18.40;76.60;;;;;;2255221;56;20961;-75
2022/11/09 13:02:27;;;;;;;1.20;0.50;;;18.40;76.40;;;;;;2257387;55;21560;-74
2022/11/09 13:04:55;;;;;;;1.58;0.50;;;18.40;76.40;;;;;;2260852;56;20936;-75
2022/11/09 13:07:42;;;;;;;1.70;0.57;;;18.40;76.80;;;;;;2367709;55;21548;-75
2022/11/09 13:10:30;;;;;;;1.17;0.52;;;18.50;76.70;;;;;;2262602;56;20960;-76
2022/11/09 13:13:19;;;;;;;1.65;0.60;;;18.50;76.60;;;;;;2313212;55;20949;-74
2022/11/09 13:16:14;;;;;;;1.25;0.50;;;18.50;76.50;;;;;;2392155;55;20925;-74
2022/11/09 13:18:50;;;;;;;0.93;0.47;;;18.50;76.50;;;;;;2441769;55;21308;-76
2022/11/09 13:21:49;;;;;;;1.55;0.52;;;18.50;76.70;;;;;;2262599;55;20940;-75
2022/11/09 13:27:47;;;;;;;1.00;0.50;;;18.50;76.20;;;;;;2261479;56;21360;-73
2022/11/09 13:31:17;;;;;;;0.93;0.40;;;18.50;75.80;;;;;;2325595;55;21060;-75
2022/11/09 13:33:44;;;;;;;1.42;0.52;;;18.60;75.90;;;;;;2269376;55;21053;-75
2022/11/09 13:36:13;;;;;;;2.50;0.62;;;18.50;76.60;;;;;;2260753;56;21017;-74
2022/11/09 13:38:40;;;;;;;2.35;0.65;;;18.50;76.40;;;;;;2275655;55;20981;-75
2022/11/09 13:41:48;;;;;;;2.20;0.80;;;18.50;76.60;;;;;;2260697;56;20968;-74